sensor_id;sensor_type;location;lat;lon;timestamp;P1;durP1;ratioP1;P2;durP2;ratioP2
37701;SDS011;23548;51.196;6.838;2022-08-19T00:01:41;15.73;;;14.13;;
37701;SDS011;23548;51.196;6.838;2022-08-19T00:04:10;18.73;;;14.27;;
37701;SDS011;23548;51.196;6.838;2022-08-19T00:06:38;18.65;;;14.63;;
37701;SDS011;23548;51.196;6.838;2022-08-19T00:09:06;17.80;;;14.77;;
37701;SDS011;23548;51.196;6.838;2022-08-19T00:11:33;15.82;;;14.23;;
37701;SDS011;23548;51.196;6.838;2022-08-19T00:14:02;17.88;;;14.18;;
37701;SDS011;23548;51.196;6.838;2022-08-19T00:16:28;15.82;;;14.18;;
37701;SDS011;23548;51.196;6.838;2022-08-19T00:18:54;16.80;;;13.85;;
37701;SDS011;23548;51.196;6.838;2022-08-19T00:21:20;18.13;;;15.05;;
37701;SDS011;23548;51.196;6.838;2022-08-19T00:23:47;16.83;;;13.57;;
37701;SDS011;23548;51.196;6.838;2022-08-19T00:26:13;16.90;;;14.48;;
37701;SDS011;23548;51.196;6.838;2022-08-19T00:28:39;16.70;;;13.60;;
37701;SDS011;23548;51.196;6.838;2022-08-19T00:31:05;16.15;;;14.23;;
37701;SDS011;23548;51.196;6.838;2022-08-19T00:33:32;16.67;;;13.50;;
37701;SDS011;23548;51.196;6.838;2022-08-19T00:36:00;15.25;;;13.68;;
37701;SDS011;23548;51.196;6.838;2022-08-19T00:38:29;15.52;;;13.35;;
37701;SDS011;23548;51.196;6.838;2022-08-19T00:40:55;16.42;;;14.40;;
37701;SDS011;23548;51.196;6.838;2022-08-19T00:43:22;17.70;;;14.30;;
37701;SDS011;23548;51.196;6.838;2022-08-19T00:45:50;17.27;;;14.77;;
37701;SDS011;23548;51.196;6.838;2022-08-19T00:48:17;16.02;;;14.32;;
37701;SDS011;23548;51.196;6.838;2022-08-19T00:50:43;16.70;;;14.90;;
37701;SDS011;23548;51.196;6.838;2022-08-19T00:53:11;17.08;;;15.32;;
37701;SDS011;23548;51.196;6.838;2022-08-19T00:55:39;18.23;;;14.55;;
37701;SDS011;23548;51.196;6.838;2022-08-19T00:58:08;16.80;;;15.00;;
37701;SDS011;23548;51.196;6.838;2022-08-19T01:00:38;20.15;;;15.35;;
37701;SDS011;23548;51.196;6.838;2022-08-19T01:03:08;17.23;;;15.05;;
37701;SDS011;23548;51.196;6.838;2022-08-19T01:05:35;19.38;;;15.20;;
37701;SDS011;23548;51.196;6.838;2022-08-19T01:08:04;17.02;;;15.07;;
37701;SDS011;23548;51.196;6.838;2022-08-19T01:10:33;19.80;;;15.77;;
37701;SDS011;23548;51.196;6.838;2022-08-19T01:13:04;17.90;;;15.27;;
37701;SDS011;23548;51.196;6.838;2022-08-19T01:18:52;17.50;;;15.10;;
37701;SDS011;23548;51.196;6.838;2022-08-19T01:21:21;19.48;;;15.18;;
37701;SDS011;23548;51.196;6.838;2022-08-19T01:23:50;18.38;;;15.95;;
37701;SDS011;23548;51.196;6.838;2022-08-19T01:26:20;17.83;;;16.02;;
37701;SDS011;23548;51.196;6.838;2022-08-19T01:28:49;19.20;;;15.35;;
37701;SDS011;23548;51.196;6.838;2022-08-19T01:31:22;20.33;;;14.85;;
37701;SDS011;23548;51.196;6.838;2022-08-19T01:33:51;17.77;;;15.55;;
37701;SDS011;23548;51.196;6.838;2022-08-19T01:38:53;18.63;;;15.15;;
37701;SDS011;23548;51.196;6.838;2022-08-19T01:41:20;18.50;;;16.10;;
37701;SDS011;23548;51.196;6.838;2022-08-19T01:43:48;17.73;;;15.68;;
37701;SDS011;23548;51.196;6.838;2022-08-19T01:46:15;19.15;;;15.20;;
37701;SDS011;23548;51.196;6.838;2022-08-19T01:48:42;18.20;;;15.80;;
37701;SDS011;23548;51.196;6.838;2022-08-19T01:51:09;21.85;;;15.05;;
37701;SDS011;23548;51.196;6.838;2022-08-19T01:53:35;20.98;;;15.30;;
37701;SDS011;23548;51.196;6.838;2022-08-19T01:56:02;17.55;;;14.52;;
37701;SDS011;23548;51.196;6.838;2022-08-19T01:58:35;18.02;;;15.20;;
37701;SDS011;23548;51.196;6.838;2022-08-19T02:01:06;15.73;;;14.05;;
37701;SDS011;23548;51.196;6.838;2022-08-19T02:03:32;19.98;;;13.70;;
37701;SDS011;23548;51.196;6.838;2022-08-19T02:06:00;15.93;;;14.13;;
37701;SDS011;23548;51.196;6.838;2022-08-19T02:08:27;26.80;;;17.55;;
37701;SDS011;23548;51.196;6.838;2022-08-19T02:10:55;23.98;;;16.55;;
37701;SDS011;23548;51.196;6.838;2022-08-19T02:13:21;19.92;;;15.75;;
37701;SDS011;23548;51.196;6.838;2022-08-19T02:15:47;22.67;;;15.80;;
37701;SDS011;23548;51.196;6.838;2022-08-19T02:18:13;20.05;;;16.40;;
37701;SDS011;23548;51.196;6.838;2022-08-19T02:20:40;21.38;;;14.05;;
37701;SDS011;23548;51.196;6.838;2022-08-19T02:23:08;16.98;;;15.18;;
37701;SDS011;23548;51.196;6.838;2022-08-19T02:25:35;23.13;;;16.30;;
37701;SDS011;23548;51.196;6.838;2022-08-19T02:28:01;20.10;;;15.77;;
37701;SDS011;23548;51.196;6.838;2022-08-19T02:30:28;20.77;;;15.43;;
37701;SDS011;23548;51.196;6.838;2022-08-19T02:32:53;21.08;;;15.18;;
37701;SDS011;23548;51.196;6.838;2022-08-19T02:35:19;17.73;;;14.98;;
37701;SDS011;23548;51.196;6.838;2022-08-19T02:37:46;16.23;;;14.52;;
37701;SDS011;23548;51.196;6.838;2022-08-19T02:40:30;18.13;;;14.40;;
37701;SDS011;23548;51.196;6.838;2022-08-19T02:43:00;22.38;;;14.95;;
37701;SDS011;23548;51.196;6.838;2022-08-19T02:45:31;18.38;;;15.25;;
37701;SDS011;23548;51.196;6.838;2022-08-19T02:48:02;18.23;;;15.10;;
37701;SDS011;23548;51.196;6.838;2022-08-19T02:50:29;19.60;;;13.88;;
37701;SDS011;23548;51.196;6.838;2022-08-19T02:52:55;17.10;;;14.93;;
37701;SDS011;23548;51.196;6.838;2022-08-19T02:55:21;15.75;;;14.13;;
37701;SDS011;23548;51.196;6.838;2022-08-19T02:57:47;20.15;;;14.63;;
37701;SDS011;23548;51.196;6.838;2022-08-19T03:00:12;17.83;;;15.38;;
37701;SDS011;23548;51.196;6.838;2022-08-19T03:02:39;22.02;;;15.98;;
37701;SDS011;23548;51.196;6.838;2022-08-19T03:05:05;35.05;;;17.40;;
37701;SDS011;23548;51.196;6.838;2022-08-19T03:07:32;33.05;;;17.83;;
37701;SDS011;23548;51.196;6.838;2022-08-19T03:09:58;32.72;;;18.73;;
37701;SDS011;23548;51.196;6.838;2022-08-19T03:12:24;25.13;;;17.95;;
37701;SDS011;23548;51.196;6.838;2022-08-19T03:14:50;24.90;;;17.95;;
37701;SDS011;23548;51.196;6.838;2022-08-19T03:17:16;23.13;;;18.08;;
37701;SDS011;23548;51.196;6.838;2022-08-19T03:19:42;21.85;;;17.15;;
37701;SDS011;23548;51.196;6.838;2022-08-19T03:22:08;21.25;;;17.10;;
37701;SDS011;23548;51.196;6.838;2022-08-19T03:24:34;19.20;;;15.35;;
37701;SDS011;23548;51.196;6.838;2022-08-19T03:27:00;17.83;;;15.80;;
37701;SDS011;23548;51.196;6.838;2022-08-19T03:29:27;17.60;;;15.52;;
37701;SDS011;23548;51.196;6.838;2022-08-19T03:31:53;19.83;;;15.77;;
37701;SDS011;23548;51.196;6.838;2022-08-19T03:34:24;23.48;;;17.33;;
37701;SDS011;23548;51.196;6.838;2022-08-19T03:36:57;21.88;;;16.15;;
37701;SDS011;23548;51.196;6.838;2022-08-19T03:39:28;19.58;;;16.20;;
37701;SDS011;23548;51.196;6.838;2022-08-19T03:41:54;22.50;;;16.35;;
37701;SDS011;23548;51.196;6.838;2022-08-19T03:44:26;19.27;;;15.82;;
37701;SDS011;23548;51.196;6.838;2022-08-19T03:46:52;17.58;;;15.40;;
37701;SDS011;23548;51.196;6.838;2022-08-19T03:49:20;17.90;;;15.32;;
37701;SDS011;23548;51.196;6.838;2022-08-19T03:51:48;18.00;;;15.27;;
37701;SDS011;23548;51.196;6.838;2022-08-19T03:54:16;22.52;;;15.55;;
37701;SDS011;23548;51.196;6.838;2022-08-19T03:56:43;21.58;;;16.02;;
37701;SDS011;23548;51.196;6.838;2022-08-19T03:59:12;25.95;;;16.50;;
37701;SDS011;23548;51.196;6.838;2022-08-19T04:01:40;18.42;;;15.38;;
37701;SDS011;23548;51.196;6.838;2022-08-19T04:04:07;25.00;;;15.95;;
37701;SDS011;23548;51.196;6.838;2022-08-19T04:06:34;27.55;;;16.52;;
37701;SDS011;23548;51.196;6.838;2022-08-19T04:09:03;26.33;;;16.23;;
37701;SDS011;23548;51.196;6.838;2022-08-19T04:11:41;22.98;;;16.33;;
37701;SDS011;23548;51.196;6.838;2022-08-19T04:14:11;27.23;;;16.88;;
37701;SDS011;23548;51.196;6.838;2022-08-19T04:16:39;22.63;;;16.27;;
37701;SDS011;23548;51.196;6.838;2022-08-19T04:19:05;21.55;;;16.05;;
37701;SDS011;23548;51.196;6.838;2022-08-19T04:21:31;54.25;;;17.60;;
37701;SDS011;23548;51.196;6.838;2022-08-19T04:23:57;135.50;;;23.35;;
37701;SDS011;23548;51.196;6.838;2022-08-19T04:26:24;92.53;;;20.15;;
37701;SDS011;23548;51.196;6.838;2022-08-19T04:28:59;92.32;;;22.00;;
37701;SDS011;23548;51.196;6.838;2022-08-19T04:31:29;51.05;;;20.70;;
37701;SDS011;23548;51.196;6.838;2022-08-19T04:34:00;40.35;;;19.25;;
37701;SDS011;23548;51.196;6.838;2022-08-19T04:36:28;47.90;;;19.83;;
37701;SDS011;23548;51.196;6.838;2022-08-19T04:38:58;37.40;;;19.23;;
37701;SDS011;23548;51.196;6.838;2022-08-19T04:41:27;47.25;;;20.52;;
37701;SDS011;23548;51.196;6.838;2022-08-19T04:44:12;35.95;;;19.27;;
37701;SDS011;23548;51.196;6.838;2022-08-19T04:46:39;34.92;;;21.05;;
37701;SDS011;23548;51.196;6.838;2022-08-19T04:49:06;40.60;;;23.40;;
37701;SDS011;23548;51.196;6.838;2022-08-19T04:51:33;31.40;;;22.73;;
37701;SDS011;23548;51.196;6.838;2022-08-19T04:53:59;39.63;;;22.77;;
37701;SDS011;23548;51.196;6.838;2022-08-19T04:56:27;37.53;;;21.65;;
37701;SDS011;23548;51.196;6.838;2022-08-19T04:58:54;26.95;;;18.88;;
37701;SDS011;23548;51.196;6.838;2022-08-19T05:01:22;27.15;;;18.30;;
37701;SDS011;23548;51.196;6.838;2022-08-19T05:03:49;31.38;;;17.75;;
37701;SDS011;23548;51.196;6.838;2022-08-19T05:06:16;29.60;;;19.23;;
37701;SDS011;23548;51.196;6.838;2022-08-19T05:08:44;29.40;;;19.38;;
37701;SDS011;23548;51.196;6.838;2022-08-19T05:11:17;29.00;;;20.77;;
37701;SDS011;23548;51.196;6.838;2022-08-19T05:13:48;33.33;;;23.13;;
37701;SDS011;23548;51.196;6.838;2022-08-19T05:16:14;32.95;;;21.75;;
37701;SDS011;23548;51.196;6.838;2022-08-19T05:18:42;32.05;;;23.58;;
37701;SDS011;23548;51.196;6.838;2022-08-19T05:21:27;33.83;;;25.83;;
37701;SDS011;23548;51.196;6.838;2022-08-19T05:24:12;44.50;;;23.70;;
37701;SDS011;23548;51.196;6.838;2022-08-19T05:26:40;55.53;;;24.73;;
37701;SDS011;23548;51.196;6.838;2022-08-19T05:29:11;47.03;;;28.02;;
37701;SDS011;23548;51.196;6.838;2022-08-19T05:31:38;52.20;;;31.77;;
37701;SDS011;23548;51.196;6.838;2022-08-19T05:34:04;54.28;;;38.05;;
37701;SDS011;23548;51.196;6.838;2022-08-19T05:36:35;51.40;;;36.53;;
37701;SDS011;23548;51.196;6.838;2022-08-19T05:39:05;69.10;;;52.10;;
37701;SDS011;23548;51.196;6.838;2022-08-19T05:41:35;73.55;;;57.47;;
37701;SDS011;23548;51.196;6.838;2022-08-19T05:44:02;75.53;;;57.08;;
37701;SDS011;23548;51.196;6.838;2022-08-19T05:46:31;76.82;;;58.33;;
37701;SDS011;23548;51.196;6.838;2022-08-19T05:48:57;73.88;;;58.70;;
37701;SDS011;23548;51.196;6.838;2022-08-19T05:51:24;81.18;;;58.25;;
37701;SDS011;23548;51.196;6.838;2022-08-19T05:53:50;79.45;;;60.60;;
37701;SDS011;23548;51.196;6.838;2022-08-19T05:56:17;77.40;;;61.10;;
37701;SDS011;23548;51.196;6.838;2022-08-19T05:58:44;78.15;;;60.28;;
37701;SDS011;23548;51.196;6.838;2022-08-19T06:01:12;75.13;;;59.80;;
37701;SDS011;23548;51.196;6.838;2022-08-19T06:03:43;79.88;;;57.63;;
37701;SDS011;23548;51.196;6.838;2022-08-19T06:06:10;77.53;;;60.00;;
37701;SDS011;23548;51.196;6.838;2022-08-19T06:08:37;77.07;;;58.38;;
37701;SDS011;23548;51.196;6.838;2022-08-19T06:13:39;71.25;;;56.70;;
37701;SDS011;23548;51.196;6.838;2022-08-19T06:16:04;77.78;;;58.10;;
37701;SDS011;23548;51.196;6.838;2022-08-19T06:18:30;72.18;;;55.45;;
37701;SDS011;23548;51.196;6.838;2022-08-19T06:20:58;78.63;;;59.67;;
37701;SDS011;23548;51.196;6.838;2022-08-19T06:23:23;77.38;;;59.08;;
37701;SDS011;23548;51.196;6.838;2022-08-19T06:25:50;83.38;;;58.92;;
37701;SDS011;23548;51.196;6.838;2022-08-19T06:28:16;75.57;;;56.10;;
37701;SDS011;23548;51.196;6.838;2022-08-19T06:30:42;78.07;;;57.30;;
37701;SDS011;23548;51.196;6.838;2022-08-19T06:33:08;73.18;;;55.17;;
37701;SDS011;23548;51.196;6.838;2022-08-19T06:35:38;80.72;;;58.42;;
37701;SDS011;23548;51.196;6.838;2022-08-19T06:38:04;86.47;;;61.33;;
37701;SDS011;23548;51.196;6.838;2022-08-19T06:40:30;78.53;;;58.55;;
37701;SDS011;23548;51.196;6.838;2022-08-19T06:42:56;80.25;;;60.08;;
37701;SDS011;23548;51.196;6.838;2022-08-19T06:45:24;75.93;;;58.05;;
37701;SDS011;23548;51.196;6.838;2022-08-19T06:47:51;82.57;;;60.95;;
37701;SDS011;23548;51.196;6.838;2022-08-19T06:50:20;77.05;;;57.95;;
37701;SDS011;23548;51.196;6.838;2022-08-19T06:52:49;74.32;;;56.72;;
37701;SDS011;23548;51.196;6.838;2022-08-19T06:55:15;78.63;;;56.05;;
37701;SDS011;23548;51.196;6.838;2022-08-19T06:57:41;78.38;;;57.35;;
37701;SDS011;23548;51.196;6.838;2022-08-19T07:00:08;81.80;;;59.08;;
37701;SDS011;23548;51.196;6.838;2022-08-19T07:02:41;81.55;;;58.13;;
37701;SDS011;23548;51.196;6.838;2022-08-19T07:05:07;77.38;;;56.15;;
37701;SDS011;23548;51.196;6.838;2022-08-19T07:07:33;83.70;;;59.40;;
37701;SDS011;23548;51.196;6.838;2022-08-19T07:09:59;83.32;;;59.28;;
37701;SDS011;23548;51.196;6.838;2022-08-19T07:12:26;84.05;;;59.10;;
37701;SDS011;23548;51.196;6.838;2022-08-19T07:14:53;75.95;;;56.60;;
37701;SDS011;23548;51.196;6.838;2022-08-19T07:17:19;78.63;;;56.55;;
37701;SDS011;23548;51.196;6.838;2022-08-19T07:19:45;82.95;;;59.47;;
37701;SDS011;23548;51.196;6.838;2022-08-19T07:22:11;84.07;;;58.25;;
37701;SDS011;23548;51.196;6.838;2022-08-19T07:24:37;86.63;;;58.70;;
37701;SDS011;23548;51.196;6.838;2022-08-19T07:27:04;80.15;;;56.83;;
37701;SDS011;23548;51.196;6.838;2022-08-19T07:29:32;73.30;;;54.45;;
37701;SDS011;23548;51.196;6.838;2022-08-19T07:32:00;73.25;;;55.65;;
37701;SDS011;23548;51.196;6.838;2022-08-19T07:34:27;74.85;;;56.00;;
37701;SDS011;23548;51.196;6.838;2022-08-19T07:36:55;75.70;;;54.83;;
37701;SDS011;23548;51.196;6.838;2022-08-19T07:39:26;65.68;;;50.30;;
37701;SDS011;23548;51.196;6.838;2022-08-19T07:41:54;75.30;;;53.90;;
37701;SDS011;23548;51.196;6.838;2022-08-19T07:44:20;77.53;;;53.72;;
37701;SDS011;23548;51.196;6.838;2022-08-19T07:46:48;73.32;;;53.80;;
37701;SDS011;23548;51.196;6.838;2022-08-19T07:49:16;71.90;;;51.90;;
37701;SDS011;23548;51.196;6.838;2022-08-19T07:51:45;64.03;;;50.72;;
37701;SDS011;23548;51.196;6.838;2022-08-19T07:54:19;69.43;;;50.78;;
37701;SDS011;23548;51.196;6.838;2022-08-19T07:56:47;69.80;;;50.90;;
37701;SDS011;23548;51.196;6.838;2022-08-19T07:59:14;63.55;;;47.92;;
37701;SDS011;23548;51.196;6.838;2022-08-19T08:01:40;61.60;;;45.75;;
37701;SDS011;23548;51.196;6.838;2022-08-19T08:04:06;54.50;;;41.92;;
37701;SDS011;23548;51.196;6.838;2022-08-19T08:06:52;54.78;;;41.08;;
37701;SDS011;23548;51.196;6.838;2022-08-19T08:09:45;49.78;;;39.92;;
37701;SDS011;23548;51.196;6.838;2022-08-19T08:12:18;51.10;;;38.75;;
37701;SDS011;23548;51.196;6.838;2022-08-19T08:14:49;47.33;;;37.90;;
37701;SDS011;23548;51.196;6.838;2022-08-19T08:17:21;50.13;;;39.10;;
37701;SDS011;23548;51.196;6.838;2022-08-19T08:19:49;44.85;;;36.63;;
37701;SDS011;23548;51.196;6.838;2022-08-19T08:22:16;41.88;;;33.85;;
37701;SDS011;23548;51.196;6.838;2022-08-19T08:25:13;44.53;;;34.65;;
37701;SDS011;23548;51.196;6.838;2022-08-19T08:27:42;44.95;;;32.65;;
37701;SDS011;23548;51.196;6.838;2022-08-19T08:30:10;45.60;;;34.72;;
37701;SDS011;23548;51.196;6.838;2022-08-19T08:32:40;44.13;;;32.83;;
37701;SDS011;23548;51.196;6.838;2022-08-19T08:35:07;44.15;;;34.30;;
37701;SDS011;23548;51.196;6.838;2022-08-19T08:37:36;51.05;;;37.15;;
37701;SDS011;23548;51.196;6.838;2022-08-19T08:40:04;44.72;;;34.85;;
37701;SDS011;23548;51.196;6.838;2022-08-19T08:42:36;57.88;;;41.05;;
37701;SDS011;23548;51.196;6.838;2022-08-19T08:45:10;51.90;;;39.28;;
37701;SDS011;23548;51.196;6.838;2022-08-19T08:47:41;61.60;;;43.35;;
37701;SDS011;23548;51.196;6.838;2022-08-19T08:50:17;60.08;;;43.47;;
37701;SDS011;23548;51.196;6.838;2022-08-19T08:52:50;60.92;;;43.97;;
37701;SDS011;23548;51.196;6.838;2022-08-19T08:55:21;63.30;;;42.80;;
37701;SDS011;23548;51.196;6.838;2022-08-19T08:58:01;58.08;;;42.65;;
37701;SDS011;23548;51.196;6.838;2022-08-19T09:00:51;59.55;;;41.97;;
37701;SDS011;23548;51.196;6.838;2022-08-19T09:03:26;55.92;;;42.17;;
37701;SDS011;23548;51.196;6.838;2022-08-19T09:08:26;53.55;;;40.22;;
37701;SDS011;23548;51.196;6.838;2022-08-19T09:11:06;55.25;;;40.45;;
37701;SDS011;23548;51.196;6.838;2022-08-19T09:13:42;55.00;;;41.00;;
37701;SDS011;23548;51.196;6.838;2022-08-19T09:16:20;63.53;;;40.80;;
37701;SDS011;23548;51.196;6.838;2022-08-19T09:18:53;50.45;;;39.10;;
37701;SDS011;23548;51.196;6.838;2022-08-19T09:21:23;51.35;;;37.47;;
37701;SDS011;23548;51.196;6.838;2022-08-19T09:23:51;49.03;;;37.92;;
37701;SDS011;23548;51.196;6.838;2022-08-19T09:26:18;44.60;;;33.83;;
37701;SDS011;23548;51.196;6.838;2022-08-19T09:28:46;42.70;;;32.15;;
37701;SDS011;23548;51.196;6.838;2022-08-19T09:31:14;44.75;;;31.20;;
37701;SDS011;23548;51.196;6.838;2022-08-19T09:33:45;39.58;;;29.90;;
37701;SDS011;23548;51.196;6.838;2022-08-19T09:36:13;42.40;;;31.17;;
37701;SDS011;23548;51.196;6.838;2022-08-19T09:38:40;30.40;;;23.80;;
37701;SDS011;23548;51.196;6.838;2022-08-19T09:41:07;40.58;;;25.27;;
37701;SDS011;23548;51.196;6.838;2022-08-19T09:43:38;32.35;;;24.00;;
37701;SDS011;23548;51.196;6.838;2022-08-19T09:46:05;32.15;;;24.55;;
37701;SDS011;23548;51.196;6.838;2022-08-19T09:48:34;35.55;;;27.35;;
37701;SDS011;23548;51.196;6.838;2022-08-19T09:51:02;33.63;;;25.40;;
37701;SDS011;23548;51.196;6.838;2022-08-19T09:53:36;37.28;;;25.58;;
37701;SDS011;23548;51.196;6.838;2022-08-19T09:56:03;32.72;;;25.38;;
37701;SDS011;23548;51.196;6.838;2022-08-19T09:58:31;31.42;;;23.65;;
37701;SDS011;23548;51.196;6.838;2022-08-19T10:00:58;37.60;;;26.17;;
37701;SDS011;23548;51.196;6.838;2022-08-19T10:03:25;33.30;;;24.65;;
37701;SDS011;23548;51.196;6.838;2022-08-19T10:05:52;32.55;;;24.35;;
37701;SDS011;23548;51.196;6.838;2022-08-19T10:08:20;32.55;;;23.30;;
37701;SDS011;23548;51.196;6.838;2022-08-19T10:10:54;32.33;;;25.02;;
37701;SDS011;23548;51.196;6.838;2022-08-19T10:13:28;33.13;;;24.75;;
37701;SDS011;23548;51.196;6.838;2022-08-19T10:15:56;30.40;;;24.73;;
37701;SDS011;23548;51.196;6.838;2022-08-19T10:18:26;28.73;;;23.63;;
37701;SDS011;23548;51.196;6.838;2022-08-19T10:21:01;35.60;;;26.88;;
37701;SDS011;23548;51.196;6.838;2022-08-19T10:23:33;29.33;;;24.08;;
37701;SDS011;23548;51.196;6.838;2022-08-19T10:26:01;27.38;;;22.23;;
37701;SDS011;23548;51.196;6.838;2022-08-19T10:28:28;31.42;;;23.23;;
37701;SDS011;23548;51.196;6.838;2022-08-19T10:30:54;27.33;;;21.42;;
37701;SDS011;23548;51.196;6.838;2022-08-19T10:33:20;29.52;;;23.02;;
37701;SDS011;23548;51.196;6.838;2022-08-19T10:35:46;31.17;;;24.92;;
37701;SDS011;23548;51.196;6.838;2022-08-19T10:38:12;29.05;;;22.30;;
37701;SDS011;23548;51.196;6.838;2022-08-19T10:40:38;30.80;;;23.80;;
37701;SDS011;23548;51.196;6.838;2022-08-19T10:43:04;30.48;;;22.00;;
37701;SDS011;23548;51.196;6.838;2022-08-19T10:45:29;29.77;;;22.75;;
37701;SDS011;23548;51.196;6.838;2022-08-19T10:47:55;29.13;;;21.77;;
37701;SDS011;23548;51.196;6.838;2022-08-19T10:50:21;26.85;;;20.85;;
37701;SDS011;23548;51.196;6.838;2022-08-19T10:53:06;26.77;;;20.10;;
37701;SDS011;23548;51.196;6.838;2022-08-19T10:55:36;24.50;;;18.80;;
37701;SDS011;23548;51.196;6.838;2022-08-19T10:58:21;24.77;;;20.20;;
37701;SDS011;23548;51.196;6.838;2022-08-19T11:00:51;23.92;;;17.52;;
37701;SDS011;23548;51.196;6.838;2022-08-19T11:03:22;21.92;;;17.73;;
37701;SDS011;23548;51.196;6.838;2022-08-19T11:06:01;21.13;;;17.50;;
37701;SDS011;23548;51.196;6.838;2022-08-19T11:08:29;22.77;;;18.60;;
37701;SDS011;23548;51.196;6.838;2022-08-19T11:10:58;21.60;;;18.63;;
37701;SDS011;23548;51.196;6.838;2022-08-19T11:13:29;22.52;;;18.50;;
37701;SDS011;23548;51.196;6.838;2022-08-19T11:16:01;20.88;;;17.15;;
37701;SDS011;23548;51.196;6.838;2022-08-19T11:18:36;21.33;;;17.38;;
37701;SDS011;23548;51.196;6.838;2022-08-19T11:24:02;19.10;;;15.85;;
37701;SDS011;23548;51.196;6.838;2022-08-19T11:26:31;23.63;;;18.10;;
37701;SDS011;23548;51.196;6.838;2022-08-19T11:28:58;21.00;;;18.52;;
37701;SDS011;23548;51.196;6.838;2022-08-19T11:31:29;22.75;;;17.80;;
37701;SDS011;23548;51.196;6.838;2022-08-19T11:33:57;20.27;;;17.90;;
37701;SDS011;23548;51.196;6.838;2022-08-19T11:36:24;18.60;;;16.63;;
37701;SDS011;23548;51.196;6.838;2022-08-19T11:38:51;18.13;;;15.00;;
37701;SDS011;23548;51.196;6.838;2022-08-19T11:41:18;17.88;;;15.52;;
37701;SDS011;23548;51.196;6.838;2022-08-19T11:43:47;21.17;;;16.25;;
37701;SDS011;23548;51.196;6.838;2022-08-19T11:46:14;17.85;;;14.30;;
37701;SDS011;23548;51.196;6.838;2022-08-19T11:48:41;16.65;;;13.68;;
37701;SDS011;23548;51.196;6.838;2022-08-19T11:51:10;19.73;;;13.38;;
37701;SDS011;23548;51.196;6.838;2022-08-19T11:53:38;15.75;;;14.15;;
37701;SDS011;23548;51.196;6.838;2022-08-19T11:56:05;17.13;;;13.63;;
37701;SDS011;23548;51.196;6.838;2022-08-19T11:58:33;20.70;;;14.52;;
37701;SDS011;23548;51.196;6.838;2022-08-19T12:00:59;14.18;;;11.70;;
37701;SDS011;23548;51.196;6.838;2022-08-19T12:03:25;14.45;;;12.30;;
37701;SDS011;23548;51.196;6.838;2022-08-19T12:05:52;11.88;;;10.57;;
37701;SDS011;23548;51.196;6.838;2022-08-19T12:08:18;14.35;;;10.13;;
37701;SDS011;23548;51.196;6.838;2022-08-19T12:10:44;12.32;;;9.23;;
37701;SDS011;23548;51.196;6.838;2022-08-19T12:13:11;12.57;;;9.65;;
37701;SDS011;23548;51.196;6.838;2022-08-19T12:15:43;12.65;;;9.85;;
37701;SDS011;23548;51.196;6.838;2022-08-19T12:18:10;13.18;;;10.68;;
37701;SDS011;23548;51.196;6.838;2022-08-19T12:20:39;22.45;;;15.38;;
37701;SDS011;23548;51.196;6.838;2022-08-19T12:23:06;22.45;;;17.58;;
37701;SDS011;23548;51.196;6.838;2022-08-19T12:25:34;18.88;;;12.65;;
37701;SDS011;23548;51.196;6.838;2022-08-19T12:28:01;14.98;;;13.20;;
37701;SDS011;23548;51.196;6.838;2022-08-19T12:30:28;11.75;;;10.55;;
37701;SDS011;23548;51.196;6.838;2022-08-19T12:32:54;13.25;;;11.55;;
37701;SDS011;23548;51.196;6.838;2022-08-19T12:35:20;14.07;;;12.13;;
37701;SDS011;23548;51.196;6.838;2022-08-19T12:37:47;18.88;;;13.13;;
37701;SDS011;23548;51.196;6.838;2022-08-19T12:40:14;14.10;;;11.15;;
37701;SDS011;23548;51.196;6.838;2022-08-19T12:42:42;13.88;;;11.05;;
37701;SDS011;23548;51.196;6.838;2022-08-19T12:45:09;14.30;;;10.20;;
37701;SDS011;23548;51.196;6.838;2022-08-19T12:47:36;11.85;;;9.50;;
37701;SDS011;23548;51.196;6.838;2022-08-19T12:50:03;15.57;;;10.73;;
37701;SDS011;23548;51.196;6.838;2022-08-19T12:52:31;15.18;;;11.57;;
37701;SDS011;23548;51.196;6.838;2022-08-19T12:54:57;10.52;;;9.38;;
37701;SDS011;23548;51.196;6.838;2022-08-19T12:57:23;11.93;;;8.77;;
37701;SDS011;23548;51.196;6.838;2022-08-19T12:59:52;9.82;;;8.43;;
37701;SDS011;23548;51.196;6.838;2022-08-19T13:02:21;9.77;;;8.65;;
37701;SDS011;23548;51.196;6.838;2022-08-19T13:04:47;14.50;;;9.20;;
37701;SDS011;23548;51.196;6.838;2022-08-19T13:07:13;9.10;;;8.13;;
37701;SDS011;23548;51.196;6.838;2022-08-19T13:09:39;8.65;;;7.72;;
37701;SDS011;23548;51.196;6.838;2022-08-19T13:12:07;10.15;;;8.57;;
37701;SDS011;23548;51.196;6.838;2022-08-19T13:14:37;11.65;;;8.65;;
37701;SDS011;23548;51.196;6.838;2022-08-19T13:17:05;13.15;;;8.90;;
37701;SDS011;23548;51.196;6.838;2022-08-19T13:19:31;13.48;;;9.43;;
37701;SDS011;23548;51.196;6.838;2022-08-19T13:21:57;12.82;;;10.77;;
37701;SDS011;23548;51.196;6.838;2022-08-19T13:24:24;11.63;;;9.77;;
37701;SDS011;23548;51.196;6.838;2022-08-19T13:26:50;13.02;;;9.55;;
37701;SDS011;23548;51.196;6.838;2022-08-19T13:29:16;16.92;;;9.70;;
37701;SDS011;23548;51.196;6.838;2022-08-19T13:32:00;11.93;;;8.60;;
37701;SDS011;23548;51.196;6.838;2022-08-19T13:34:44;13.85;;;8.85;;
37701;SDS011;23548;51.196;6.838;2022-08-19T13:37:11;10.85;;;9.02;;
37701;SDS011;23548;51.196;6.838;2022-08-19T13:39:37;12.13;;;8.77;;
37701;SDS011;23548;51.196;6.838;2022-08-19T13:42:03;9.90;;;7.65;;
37701;SDS011;23548;51.196;6.838;2022-08-19T13:44:30;11.15;;;8.07;;
37701;SDS011;23548;51.196;6.838;2022-08-19T13:47:03;10.07;;;7.10;;
37701;SDS011;23548;51.196;6.838;2022-08-19T13:49:36;9.82;;;7.30;;
37701;SDS011;23548;51.196;6.838;2022-08-19T13:52:03;7.32;;;6.60;;
37701;SDS011;23548;51.196;6.838;2022-08-19T13:54:30;7.30;;;6.60;;
37701;SDS011;23548;51.196;6.838;2022-08-19T13:56:56;8.27;;;6.18;;
37701;SDS011;23548;51.196;6.838;2022-08-19T13:59:21;8.20;;;6.38;;
37701;SDS011;23548;51.196;6.838;2022-08-19T14:01:47;8.25;;;7.00;;
37701;SDS011;23548;51.196;6.838;2022-08-19T14:04:13;9.43;;;7.47;;
37701;SDS011;23548;51.196;6.838;2022-08-19T14:06:39;8.63;;;7.60;;
37701;SDS011;23548;51.196;6.838;2022-08-19T14:09:05;8.63;;;7.72;;
37701;SDS011;23548;51.196;6.838;2022-08-19T14:11:31;9.45;;;7.10;;
37701;SDS011;23548;51.196;6.838;2022-08-19T14:13:56;9.52;;;7.18;;
37701;SDS011;23548;51.196;6.838;2022-08-19T14:16:22;8.00;;;6.90;;
37701;SDS011;23548;51.196;6.838;2022-08-19T14:18:49;11.55;;;6.30;;
37701;SDS011;23548;51.196;6.838;2022-08-19T14:21:16;8.90;;;5.85;;
37701;SDS011;23548;51.196;6.838;2022-08-19T14:23:45;9.60;;;5.90;;
37701;SDS011;23548;51.196;6.838;2022-08-19T14:26:13;6.22;;;5.07;;
37701;SDS011;23548;51.196;6.838;2022-08-19T14:28:41;8.32;;;5.55;;
37701;SDS011;23548;51.196;6.838;2022-08-19T14:31:08;10.07;;;4.78;;
37701;SDS011;23548;51.196;6.838;2022-08-19T14:33:35;8.43;;;4.30;;
37701;SDS011;23548;51.196;6.838;2022-08-19T14:36:01;7.32;;;4.85;;
37701;SDS011;23548;51.196;6.838;2022-08-19T14:38:28;7.00;;;4.65;;
37701;SDS011;23548;51.196;6.838;2022-08-19T14:41:18;5.72;;;4.78;;
37701;SDS011;23548;51.196;6.838;2022-08-19T14:43:46;7.82;;;5.22;;
37701;SDS011;23548;51.196;6.838;2022-08-19T14:46:15;6.03;;;4.85;;